createdAt,value
2023-04-04T00:00:37.119Z,99110.50
2023-04-04T00:01:39.956Z,99107.16
2023-04-04T00:02:45.321Z,99112.38
2023-04-04T00:03:51.751Z,99113.34
2023-04-04T00:04:55.132Z,99106.63
2023-04-04T00:05:57.969Z,99109.28
2023-04-04T00:06:59.917Z,99107.59
2023-04-04T00:08:03.571Z,99102.53
2023-04-04T00:09:05.375Z,99108.59
2023-04-04T00:10:09.173Z,99099.38
2023-04-04T00:11:11.256Z,99102.84
2023-04-04T00:12:15.394Z,99100.41
2023-04-04T00:13:17.319Z,99092.81
2023-04-04T00:14:20.558Z,99094.59
2023-04-04T00:15:22.381Z,99090.31
2023-04-04T00:16:25.157Z,99092.13
2023-04-04T00:17:27.471Z,99091.34
2023-04-04T00:18:30.278Z,99090.50
2023-04-04T00:19:32.161Z,99094.78
2023-04-04T00:20:35.084Z,99100.78
2023-04-04T00:21:36.839Z,99089.66
2023-04-04T00:22:39.600Z,99094.78
2023-04-04T00:23:41.624Z,99089.72
2023-04-04T00:24:44.417Z,99091.38
2023-04-04T00:25:49.875Z,99085.41
2023-04-04T00:26:53.677Z,99087.19
2023-04-04T00:28:00.504Z,99083.84
2023-04-04T00:29:04.108Z,99081.25
2023-04-04T00:30:07.486Z,99086.41
2023-04-04T00:31:10.472Z,99088.19
2023-04-04T00:32:12.718Z,99084.84
2023-04-04T00:33:16.046Z,99085.72
2023-04-04T00:34:17.920Z,99092.63
2023-04-04T00:35:20.954Z,99089.31
2023-04-04T00:36:23.361Z,99090.28
2023-04-04T00:37:26.194Z,99091.19
2023-04-04T00:38:29.646Z,99092.16
2023-04-04T00:39:32.746Z,99097.38
2023-04-04T00:40:40.924Z,99097.47
2023-04-04T00:41:44.377Z,99088.16
2023-04-04T00:42:46.477Z,99091.59
2023-04-04T00:43:50.916Z,99081.41
2023-04-04T00:44:52.811Z,99086.53
2023-04-04T00:45:56.002Z,99087.38
2023-04-04T00:46:57.958Z,99081.44
2023-04-04T00:48:02.436Z,99090.84
2023-04-04T00:49:04.504Z,99086.63
2023-04-04T00:50:08.869Z,99085.00
2023-04-04T00:51:10.689Z,99088.50
2023-04-04T00:52:13.721Z,99085.09
2023-04-04T00:53:15.488Z,99090.22
2023-04-04T00:54:18.354Z,99091.13
2023-04-04T00:55:20.489Z,99087.66
2023-04-04T00:56:23.656Z,99089.38
2023-04-04T00:57:26.041Z,99084.25
2023-04-04T00:58:28.954Z,99084.25
2023-04-04T00:59:32.715Z,99082.59
2023-04-04T01:00:36.312Z,99081.75
2023-04-04T01:01:39.523Z,99086.81
2023-04-04T01:02:42.459Z,99091.06
2023-04-04T01:03:45.368Z,99094.44
2023-04-04T01:04:49.038Z,99094.44
2023-04-04T01:05:50.975Z,99100.38
2023-04-04T01:06:53.789Z,99094.44
2023-04-04T01:07:56.364Z,99095.28
2023-04-04T01:08:59.143Z,99097.91
2023-04-04T01:10:02.426Z,99093.63
2023-04-04T01:11:09.970Z,99087.75
2023-04-04T01:12:12.250Z,99094.59
2023-04-04T01:13:16.163Z,99093.75
2023-04-04T01:14:18.508Z,99099.78
2023-04-04T01:15:22.661Z,99099.84
2023-04-04T01:16:24.738Z,99099.09
2023-04-04T01:17:28.589Z,99093.97
2023-04-04T01:18:32.301Z,99099.97
2023-04-04T01:19:38.220Z,99097.41
2023-04-04T01:20:53.242Z,99089.78
2023-04-04T01:21:57.433Z,99091.44
2023-04-04T01:22:59.624Z,99094.84
2023-04-04T01:24:05.215Z,99089.66
2023-04-04T01:25:15.149Z,99091.34
2023-04-04T01:26:23.820Z,99089.66
2023-04-04T01:27:27.608Z,99096.59
2023-04-04T01:28:36.256Z,99088.09
2023-04-04T01:29:40.848Z,99096.66
2023-04-04T01:30:50.329Z,99091.53
2023-04-04T01:32:01.068Z,99096.66
2023-04-04T01:33:10.963Z,99093.22
2023-04-04T01:34:16.926Z,99099.16
2023-04-04T01:35:27.938Z,99087.25
2023-04-04T01:36:32.623Z,99100.97
2023-04-04T01:37:38.006Z,99101.84
2023-04-04T01:38:47.948Z,99107.88
2023-04-04T01:39:54.800Z,99111.31
2023-04-04T01:41:02.457Z,99098.53
2023-04-04T01:42:08.638Z,99093.47
2023-04-04T01:43:10.725Z,99107.09
2023-04-04T01:44:17.779Z,99102.06
2023-04-04T01:45:22.935Z,99102.06
2023-04-04T01:46:27.209Z,99098.63
2023-04-04T01:47:31.046Z,99101.22
2023-04-04T01:48:33.845Z,99105.53
2023-04-04T01:49:40.204Z,99108.13
2023-04-04T01:50:44.114Z,99101.34
2023-04-04T01:51:46.460Z,99107.34
2023-04-04T01:52:50.001Z,99107.44
2023-04-04T01:53:53.674Z,99107.50
2023-04-04T01:54:57.206Z,99114.38
2023-04-04T01:55:59.605Z,99105.06
2023-04-04T01:57:04.299Z,99115.34
2023-04-04T01:58:07.479Z,99108.66
2023-04-04T01:59:10.331Z,99115.59
2023-04-04T02:00:13.399Z,99111.44
2023-04-04T02:01:19.884Z,99108.13
2023-04-04T02:02:21.760Z,99109.88
2023-04-04T02:03:24.629Z,99110.00
2023-04-04T02:04:26.858Z,99110.00
2023-04-04T02:05:30.211Z,99114.25
2023-04-04T02:06:32.058Z,99113.41
2023-04-04T02:07:35.020Z,99108.28
2023-04-04T02:08:38.307Z,99100.66
2023-04-04T02:09:41.922Z,99105.78
2023-04-04T02:10:46.080Z,99105.00
2023-04-04T02:11:48.866Z,99110.97
2023-04-04T02:12:53.279Z,99114.44
2023-04-04T02:14:00.007Z,99114.53
2023-04-04T02:15:02.976Z,99115.41
2023-04-04T02:16:08.106Z,99117.13
2023-04-04T02:17:09.983Z,99111.16
2023-04-04T02:18:13.001Z,99110.28
2023-04-04T02:19:14.992Z,99112.00
2023-04-04T02:20:18.556Z,99118.81
2023-04-04T02:21:20.457Z,99113.69
2023-04-04T02:22:23.622Z,99112.00
2023-04-04T02:23:25.735Z,99116.28
2023-04-04T02:24:28.572Z,99110.31
2023-04-04T02:25:30.419Z,99108.66
2023-04-04T02:26:33.196Z,99113.78
2023-04-04T02:27:35.424Z,99106.97
2023-04-04T02:28:38.314Z,99105.31
2023-04-04T02:29:41.468Z,99116.38
2023-04-04T02:30:44.256Z,99114.66
2023-04-04T02:31:51.117Z,99112.09
2023-04-04T02:32:54.621Z,99109.53
2023-04-04T02:33:56.639Z,99112.94
2023-04-04T02:35:01.391Z,99112.94
2023-04-04T02:36:03.475Z,99107.81
2023-04-04T02:37:06.977Z,99114.63
2023-04-04T02:38:08.874Z,99118.00
2023-04-04T02:39:16.514Z,99118.91
2023-04-04T02:40:19.139Z,99110.38
2023-04-04T02:41:23.332Z,99113.78
2023-04-04T02:42:25.293Z,99116.38
2023-04-04T02:43:28.292Z,99113.00
2023-04-04T02:44:31.308Z,99116.38
2023-04-04T02:45:36.976Z,99109.56
2023-04-04T02:47:15.273Z,99114.84
2023-04-04T02:48:21.089Z,99114.78
2023-04-04T02:49:27.872Z,99113.16
2023-04-04T02:50:29.852Z,99108.03
2023-04-04T02:51:36.809Z,99110.59
2023-04-04T02:52:39.014Z,99109.75
2023-04-04T02:53:47.945Z,99116.53
2023-04-04T02:55:02.591Z,99115.69
2023-04-04T02:56:10.135Z,99108.91
2023-04-04T02:57:12.488Z,99110.69
2023-04-04T02:58:15.458Z,99109.84
2023-04-04T02:59:20.078Z,99109.03
2023-04-04T03:00:23.069Z,99115.88
2023-04-04T03:01:26.537Z,99115.88
2023-04-04T03:02:29.433Z,99117.56
2023-04-04T03:03:31.586Z,99114.97
2023-04-04T03:04:36.933Z,99109.00
2023-04-04T03:05:38.785Z,99116.72
2023-04-04T03:06:42.190Z,99121.00
2023-04-04T03:07:44.582Z,99113.31
2023-04-04T03:08:47.560Z,99117.56
2023-04-04T03:09:49.442Z,99115.88
2023-04-04T03:10:53.161Z,99114.22
2023-04-04T03:11:55.346Z,99124.44
2023-04-04T03:12:58.549Z,99122.72
2023-04-04T03:14:03.314Z,99119.31
2023-04-04T03:15:12.515Z,99115.97
2023-04-04T03:16:17.859Z,99110.88
2023-04-04T03:17:25.673Z,99115.97
2023-04-04T03:18:29.110Z,99117.66
2023-04-04T03:19:31.030Z,99119.31
2023-04-04T03:20:34.093Z,99121.88
2023-04-04T03:21:35.944Z,99116.72
2023-04-04T03:22:38.693Z,99113.25
2023-04-04T03:23:40.569Z,99114.91
2023-04-04T03:24:43.330Z,99121.72
2023-04-04T03:25:47.069Z,99115.69
2023-04-04T03:26:52.744Z,99110.56
2023-04-04T03:27:54.548Z,99120.81
2023-04-04T03:29:00.267Z,99111.41
2023-04-04T03:30:03.945Z,99120.75
2023-04-04T03:31:08.770Z,99114.75
2023-04-04T03:32:14.158Z,99109.56
2023-04-04T03:33:21.772Z,99103.59
2023-04-04T03:34:24.760Z,99110.31
2023-04-04T03:35:27.547Z,99108.59
2023-04-04T03:36:31.962Z,99111.16
2023-04-04T03:37:35.471Z,99112.00
2023-04-04T03:38:38.294Z,99103.47
2023-04-04T03:39:40.745Z,99109.41
2023-04-04T03:40:44.546Z,99111.94
2023-04-04T03:41:47.825Z,99105.13
2023-04-04T03:42:52.985Z,99101.63
2023-04-04T03:43:55.325Z,99105.84
2023-04-04T03:44:58.101Z,99107.56
2023-04-04T03:46:07.215Z,99106.72
2023-04-04T03:47:10.338Z,99103.28
2023-04-04T03:48:12.330Z,99101.59
2023-04-04T03:49:17.569Z,99101.59
2023-04-04T03:50:19.454Z,99105.84
2023-04-04T03:51:28.538Z,99104.13
2023-04-04T03:52:32.942Z,99106.63
2023-04-04T03:53:36.543Z,99100.66
2023-04-04T03:54:39.510Z,99106.63
2023-04-04T03:55:42.990Z,99104.88
2023-04-04T03:56:45.131Z,99107.38
2023-04-04T03:57:48.188Z,99109.88
2023-04-04T03:58:52.160Z,99104.72
2023-04-04T03:59:57.208Z,99109.00
2023-04-04T04:00:59.108Z,99103.00
2023-04-04T04:02:05.509Z,99103.84
2023-04-04T04:03:09.476Z,99103.84
2023-04-04T04:04:12.423Z,99108.09
2023-04-04T04:05:17.416Z,99103.78
2023-04-04T04:06:20.258Z,99105.47
2023-04-04T04:07:23.448Z,99102.00
2023-04-04T04:08:28.043Z,99109.69
2023-04-04T04:09:30.051Z,99102.81
2023-04-04T04:10:33.446Z,99104.50
2023-04-04T04:11:36.909Z,99096.75
2023-04-04T04:12:39.812Z,99105.25
2023-04-04T04:13:42.188Z,99104.38
2023-04-04T04:14:49.014Z,99100.06
2023-04-04T04:15:50.989Z,99103.47
2023-04-04T04:16:57.713Z,99090.59
2023-04-04T04:18:00.453Z,99102.53
2023-04-04T04:19:04.453Z,99105.91
2023-04-04T04:20:12.609Z,99094.75
2023-04-04T04:21:26.836Z,99097.25
2023-04-04T04:22:28.756Z,99099.81
2023-04-04T04:23:32.231Z,99093.78
2023-04-04T04:24:35.662Z,99098.03
2023-04-04T04:25:39.952Z,99098.81
2023-04-04T04:26:51.355Z,99102.22
2023-04-04T04:27:56.947Z,99094.50
2023-04-04T04:28:59.559Z,99098.72
2023-04-04T04:30:07.697Z,99101.22
2023-04-04T04:31:15.045Z,99096.16
2023-04-04T04:32:22.255Z,99097.84
2023-04-04T04:33:29.488Z,99096.09
2023-04-04T04:34:36.201Z,99096.94
2023-04-04T04:35:38.781Z,99100.38
2023-04-04T04:36:43.343Z,99094.34
2023-04-04T04:37:53.446Z,99090.06
2023-04-04T04:38:57.906Z,99090.91
2023-04-04T04:40:03.435Z,99098.63
2023-04-04T04:41:23.510Z,99090.94
2023-04-04T04:42:27.651Z,99088.41
2023-04-04T04:43:33.819Z,99094.34
2023-04-04T04:44:35.822Z,99089.16
2023-04-04T04:45:38.673Z,99096.78
2023-04-04T04:46:43.648Z,99095.06
2023-04-04T04:47:51.320Z,99088.09
2023-04-04T04:48:54.094Z,99088.06
2023-04-04T04:50:01.904Z,99088.84
2023-04-04T04:51:11.954Z,99088.84
2023-04-04T04:52:21.070Z,99082.88
2023-04-04T04:53:22.907Z,99089.66
2023-04-04T04:54:26.357Z,99096.47
2023-04-04T04:55:31.309Z,99088.75
2023-04-04T04:56:39.153Z,99096.38
2023-04-04T04:57:48.126Z,99092.03
2023-04-04T04:58:55.773Z,99095.44
2023-04-04T05:00:01.858Z,99097.13
2023-04-04T05:01:03.944Z,99102.16
2023-04-04T05:02:13.934Z,99099.59
2023-04-04T05:03:18.976Z,99100.38
2023-04-04T05:04:27.188Z,99099.56
2023-04-04T05:05:35.418Z,99102.91
2023-04-04T05:06:42.548Z,99103.78
2023-04-04T05:07:48.085Z,99099.38
2023-04-04T05:08:52.002Z,99100.97
2023-04-04T05:10:02.224Z,99105.13
2023-04-04T05:11:05.666Z,99097.28
2023-04-04T05:12:08.767Z,99098.88
2023-04-04T05:13:21.973Z,99100.41
2023-04-04T05:14:24.612Z,99102.88
2023-04-04T05:15:31.525Z,99089.16
2023-04-04T05:16:33.488Z,99096.78
2023-04-04T05:17:38.590Z,99094.16
2023-04-04T05:18:43.117Z,99092.34
2023-04-04T05:19:47.951Z,99089.66
2023-04-04T05:20:55.159Z,99090.44
2023-04-04T05:22:00.303Z,99096.47
2023-04-04T05:23:08.966Z,99095.66
2023-04-04T05:24:17.166Z,99100.81
2023-04-04T05:25:21.104Z,99095.63
2023-04-04T05:26:24.995Z,99099.81
2023-04-04T05:27:29.792Z,99100.66
2023-04-04T05:28:36.285Z,99098.94
2023-04-04T05:29:40.985Z,99105.78
2023-04-04T05:30:43.960Z,99115.16
2023-04-04T05:31:56.778Z,99104.06
2023-04-04T05:32:59.052Z,99105.69
2023-04-04T05:34:08.294Z,99104.75
2023-04-04T05:35:10.781Z,99103.00
2023-04-04T05:36:14.807Z,99103.81
2023-04-04T05:37:27.748Z,99102.03
2023-04-04T05:38:33.163Z,99104.59
2023-04-04T05:39:35.159Z,99107.06
2023-04-04T05:40:45.469Z,99101.81
2023-04-04T05:41:49.278Z,99103.31
2023-04-04T05:42:55.982Z,99109.94
2023-04-04T05:44:01.488Z,99112.34
2023-04-04T05:45:05.071Z,99106.00
2023-04-04T05:46:06.884Z,99108.88
2023-04-04T05:47:17.978Z,99109.16
2023-04-04T05:48:23.671Z,99113.91
2023-04-04T05:49:27.609Z,99116.22
2023-04-04T05:50:33.746Z,99113.59
2023-04-04T05:51:38.224Z,99111.94
2023-04-04T05:52:50.097Z,99114.44
2023-04-04T05:53:53.660Z,99116.06
2023-04-04T05:55:05.967Z,99112.59
2023-04-04T05:56:08.368Z,99108.28
2023-04-04T05:57:11.190Z,99120.22
2023-04-04T05:58:17.014Z,99116.97
2023-04-04T05:59:24.866Z,99118.88
2023-04-04T06:00:33.059Z,99122.38
2023-04-04T06:01:40.800Z,99110.53
2023-04-04T06:02:49.812Z,99123.34
2023-04-04T06:03:56.057Z,99115.47
2023-04-04T06:05:02.703Z,99114.41
2023-04-04T06:06:10.549Z,99118.56
2023-04-04T06:07:16.151Z,99118.50
2023-04-04T06:08:17.985Z,99117.63
2023-04-04T06:09:22.357Z,99120.03
2023-04-04T06:10:25.740Z,99118.13
2023-04-04T06:11:31.644Z,99117.94
2023-04-04T06:12:40.366Z,99122.03
2023-04-04T06:13:45.788Z,99121.13
2023-04-04T06:14:52.703Z,99131.91
2023-04-04T06:15:56.646Z,99114.00
2023-04-04T06:16:59.923Z,99121.66
2023-04-04T06:18:01.780Z,99117.44
2023-04-04T06:19:05.473Z,99112.44
2023-04-04T06:20:10.331Z,99117.31
2023-04-04T06:21:13.797Z,99112.28
2023-04-04T06:22:17.908Z,99104.13
2023-04-04T06:23:23.830Z,99114.91
2023-04-04T06:24:28.529Z,99114.34
2023-04-04T06:25:30.956Z,99111.13
2023-04-04T06:26:35.011Z,99105.91
2023-04-04T06:27:38.560Z,99116.00
2023-04-04T06:28:48.915Z,99106.50
2023-04-04T06:29:53.332Z,99106.38
2023-04-04T06:30:58.298Z,99119.03
2023-04-04T06:32:07.739Z,99102.91
2023-04-04T06:33:14.052Z,99102.22
2023-04-04T06:34:22.615Z,99103.03
2023-04-04T06:35:29.347Z,99107.84
2023-04-04T06:36:38.033Z,99109.25
2023-04-04T06:37:41.432Z,99100.38
2023-04-04T06:38:48.545Z,99104.16
2023-04-04T06:39:56.557Z,99104.59
2023-04-04T06:41:01.347Z,99104.88
2023-04-04T06:42:04.281Z,99101.34
2023-04-04T06:43:10.205Z,99100.34
2023-04-04T06:44:14.776Z,99100.44
2023-04-04T06:45:18.205Z,99109.81
2023-04-04T06:46:20.156Z,99107.06
2023-04-04T06:47:24.069Z,99107.31
2023-04-04T06:48:26.878Z,99097.91
2023-04-04T06:49:31.745Z,99096.16
2023-04-04T06:50:33.702Z,99106.34
2023-04-04T06:51:38.013Z,99096.66
2023-04-04T06:52:46.103Z,99100.66
2023-04-04T06:53:48.956Z,99099.03
2023-04-04T06:54:51.892Z,99094.69
2023-04-04T06:55:55.229Z,99097.56
2023-04-04T06:56:58.069Z,99109.81
2023-04-04T06:57:59.950Z,99097.22
2023-04-04T06:59:03.589Z,99095.88
2023-04-04T07:00:06.782Z,99103.53
2023-04-04T07:01:09.862Z,99087.00
2023-04-04T07:02:13.310Z,99099.94
2023-04-04T07:03:18.054Z,99099.38
2023-04-04T07:04:20.118Z,99100.47
2023-04-04T07:05:24.329Z,99107.66
2023-04-04T07:06:26.745Z,99094.13
2023-04-04T07:07:29.951Z,99099.38
2023-04-04T07:08:36.769Z,99104.78
2023-04-04T07:09:39.057Z,99112.75
2023-04-04T07:10:42.197Z,99104.66
2023-04-04T07:11:46.068Z,99107.81
2023-04-04T07:12:49.013Z,99105.31
2023-04-04T07:13:51.216Z,99099.81
2023-04-04T07:14:54.362Z,99096.88
2023-04-04T07:15:56.253Z,99102.47
2023-04-04T07:16:59.264Z,99102.38
2023-04-04T07:18:03.082Z,99095.19
2023-04-04T07:19:06.176Z,99093.16
2023-04-04T07:20:08.890Z,99086.13
2023-04-04T07:21:12.029Z,99092.81
2023-04-04T07:22:14.478Z,99089.13
2023-04-04T07:23:17.241Z,99090.97
2023-04-04T07:24:19.822Z,99092.09
2023-04-04T07:25:22.609Z,99082.47
2023-04-04T07:26:25.465Z,99089.25
2023-04-04T07:27:29.642Z,99087.81
2023-04-04T07:28:32.434Z,99096.44
2023-04-04T07:29:35.372Z,99088.22
2023-04-04T07:30:38.830Z,99097.28
2023-04-04T07:31:42.050Z,99080.97
2023-04-04T07:32:45.122Z,99086.44
2023-04-04T07:33:47.152Z,99092.66
2023-04-04T07:34:51.996Z,99090.19
2023-04-04T07:35:54.960Z,99090.94
2023-04-04T07:36:56.893Z,99085.75
2023-04-04T07:37:59.926Z,99090.47
2023-04-04T07:39:01.840Z,99085.09
2023-04-04T07:40:08.269Z,99100.13
2023-04-04T07:41:11.637Z,99090.41
2023-04-04T07:42:14.422Z,99092.47
2023-04-04T07:43:18.685Z,99088.75
2023-04-04T07:44:21.469Z,99090.22
2023-04-04T07:45:26.030Z,99088.75
2023-04-04T07:46:28.944Z,99094.78
2023-04-04T07:47:31.726Z,99088.75
2023-04-04T07:48:34.538Z,99099.13
2023-04-04T07:49:36.834Z,99093.88
2023-04-04T07:50:39.993Z,99091.28
2023-04-04T07:51:41.880Z,99085.59
2023-04-04T07:52:51.233Z,99084.13
2023-04-04T07:53:53.080Z,99089.84
2023-04-04T07:54:55.832Z,99084.38
2023-04-04T07:56:00.398Z,99080.56
2023-04-04T07:57:05.482Z,99086.97
2023-04-04T07:58:08.284Z,99081.53
2023-04-04T07:59:14.334Z,99075.47
2023-04-04T08:00:21.551Z,99068.22
2023-04-04T08:01:24.461Z,99081.75
2023-04-04T08:02:27.706Z,99075.31
2023-04-04T08:03:31.302Z,99075.50
2023-04-04T08:04:34.208Z,99079.72
2023-04-04T08:05:36.371Z,99069.63
2023-04-04T08:06:43.349Z,99077.13
2023-04-04T08:07:46.152Z,99077.78
2023-04-04T08:08:50.409Z,99079.59
2023-04-04T08:09:52.283Z,99079.09
2023-04-04T08:10:55.041Z,99078.66
2023-04-04T08:11:58.098Z,99078.19
2023-04-04T08:13:00.029Z,99077.09
2023-04-04T08:14:02.991Z,99076.44
2023-04-04T08:15:10.066Z,99077.19
2023-04-04T08:16:13.129Z,99079.75
2023-04-04T08:17:19.092Z,99078.66
2023-04-04T08:18:23.194Z,99088.88
2023-04-04T08:19:25.026Z,99080.03
2023-04-04T08:20:28.205Z,99077.47
2023-04-04T08:21:31.013Z,99075.28
2023-04-04T08:22:33.733Z,99077.66
2023-04-04T08:23:36.585Z,99077.72
2023-04-04T08:24:38.743Z,99075.97
2023-04-04T08:25:41.512Z,99068.72
2023-04-04T08:26:45.226Z,99073.44
2023-04-04T08:27:55.444Z,99073.66
2023-04-04T08:28:57.221Z,99075.91
2023-04-04T08:30:00.227Z,99061.75
2023-04-04T08:31:06.543Z,99072.53
2023-04-04T08:32:09.149Z,99075.28
2023-04-04T08:33:13.018Z,99071.06
2023-04-04T08:34:14.860Z,99073.56
2023-04-04T08:35:17.665Z,99071.41
2023-04-04T08:36:19.716Z,99070.09
2023-04-04T08:37:22.555Z,99068.94
2023-04-04T08:38:25.558Z,99073.19
2023-04-04T08:39:28.372Z,99068.22
2023-04-04T08:40:32.751Z,99070.03
2023-04-04T08:41:36.841Z,99063.22
2023-04-04T08:42:40.551Z,99059.44
2023-04-04T08:43:46.492Z,99062.47
2023-04-04T08:44:52.125Z,99061.34
2023-04-04T08:45:55.220Z,99064.28
2023-04-04T08:47:00.416Z,99061.22
2023-04-04T08:48:04.896Z,99059.06
2023-04-04T08:49:06.981Z,99065.69
2023-04-04T08:50:13.737Z,99065.88
2023-04-04T08:51:17.267Z,99057.44
2023-04-04T08:52:22.832Z,99066.13
2023-04-04T08:53:28.040Z,99061.53
2023-04-04T08:54:32.983Z,99060.34
2023-04-04T08:55:35.965Z,99054.16
2023-04-04T08:56:38.913Z,99042.78
2023-04-04T08:57:41.924Z,99049.78
2023-04-04T08:58:43.787Z,99056.19
2023-04-04T08:59:47.583Z,99044.47
2023-04-04T09:00:53.701Z,99046.34
2023-04-04T09:02:17.286Z,99044.50
2023-04-04T09:03:22.948Z,99043.16
2023-04-04T09:04:25.021Z,99046.69
2023-04-04T09:05:28.186Z,99053.94
2023-04-04T09:06:32.067Z,99055.25
2023-04-04T09:07:37.078Z,99054.69
2023-04-04T09:08:42.321Z,99047.19
2023-04-04T09:09:46.059Z,99052.44
2023-04-04T09:10:49.437Z,99044.66
2023-04-04T09:11:51.957Z,99045.66
2023-04-04T09:13:02.206Z,99042.78
2023-04-04T09:14:11.638Z,99035.75
2023-04-04T09:15:15.071Z,99044.09
2023-04-04T09:16:19.062Z,99035.06
2023-04-04T09:17:23.688Z,99044.06
2023-04-04T09:18:26.593Z,99046.16
2023-04-04T09:19:28.754Z,99050.34
2023-04-04T09:20:42.028Z,99045.22
2023-04-04T09:21:47.749Z,99050.63
2023-04-04T09:22:52.769Z,99055.94
2023-04-04T09:24:05.921Z,99051.84
2023-04-04T09:25:08.707Z,99056.53
2023-04-04T09:26:13.117Z,99044.16
2023-04-04T09:27:16.507Z,99041.78
2023-04-04T09:28:20.045Z,99046.13
2023-04-04T09:29:24.046Z,99044.28
2023-04-04T09:30:25.917Z,99037.94
2023-04-04T09:31:29.826Z,99044.50
2023-04-04T09:33:02.198Z,99047.31
2023-04-04T09:34:05.714Z,99042.66
2023-04-04T09:35:10.589Z,99037.66
2023-04-04T09:36:15.563Z,99039.19
2023-04-04T09:37:19.526Z,99053.16
2023-04-04T09:38:25.010Z,99046.19
2023-04-04T09:39:29.702Z,99038.78
2023-04-04T09:40:31.858Z,99047.94
2023-04-04T09:41:34.757Z,99048.09
2023-04-04T09:42:36.888Z,99047.31
2023-04-04T09:43:40.857Z,99046.00
2023-04-04T09:44:44.626Z,99042.50
2023-04-04T09:45:48.746Z,99046.88
2023-04-04T09:46:52.502Z,99049.16
2023-04-04T09:47:55.748Z,99047.25
2023-04-04T09:49:01.974Z,99054.25
2023-04-04T09:50:05.763Z,99056.97
2023-04-04T09:51:13.304Z,99046.28
2023-04-04T09:52:20.910Z,99048.59
2023-04-04T09:53:23.741Z,99044.94
2023-04-04T09:54:29.370Z,99045.25
2023-04-04T09:55:34.636Z,99054.00
2023-04-04T09:56:38.991Z,99048.59
2023-04-04T09:57:41.234Z,99044.00
2023-04-04T09:59:02.577Z,99052.97
2023-04-04T10:00:09.286Z,99048.69
2023-04-04T10:01:13.823Z,99047.56
2023-04-04T10:02:18.712Z,99048.06
2023-04-04T10:03:23.616Z,99055.97
2023-04-04T10:04:28.879Z,99049.75
2023-04-04T10:05:34.835Z,99052.84
2023-04-04T10:06:38.440Z,99042.16
2023-04-04T10:07:40.822Z,99047.53
2023-04-04T10:08:45.792Z,99047.97
2023-04-04T10:09:50.744Z,99049.94
2023-04-04T10:11:08.980Z,99044.28
2023-04-04T10:12:17.532Z,99048.81
2023-04-04T10:13:28.158Z,99038.03
2023-04-04T10:14:34.819Z,99040.69
2023-04-04T10:15:38.292Z,99040.53
2023-04-04T10:16:48.032Z,99048.06
2023-04-04T10:17:54.096Z,99034.09
2023-04-04T10:19:02.555Z,99045.88
2023-04-04T10:20:09.089Z,99047.63
2023-04-04T10:21:15.615Z,99042.44
2023-04-04T10:22:24.060Z,99038.34
2023-04-04T10:23:27.645Z,99038.25
2023-04-04T10:24:30.508Z,99037.97
2023-04-04T10:25:37.051Z,99040.72
2023-04-04T10:26:39.866Z,99039.91
2023-04-04T10:27:41.738Z,99037.50
2023-04-04T10:28:45.453Z,99041.03
2023-04-04T10:29:47.337Z,99037.91
2023-04-04T10:31:05.230Z,99034.25
2023-04-04T10:32:11.018Z,99032.56
2023-04-04T10:33:22.198Z,99024.94
2023-04-04T10:34:30.214Z,99028.56
2023-04-04T10:35:37.249Z,99019.94
2023-04-04T10:36:46.395Z,99023.00
2023-04-04T10:37:54.507Z,99023.63
2023-04-04T10:39:06.027Z,99024.44
2023-04-04T10:40:10.340Z,99027.78
2023-04-04T10:41:13.540Z,99026.13
2023-04-04T10:42:17.511Z,99023.38
2023-04-04T10:43:26.627Z,99023.41
2023-04-04T10:44:32.995Z,99018.03
2023-04-04T10:45:38.575Z,99031.22
2023-04-04T10:46:43.024Z,99022.81
2023-04-04T10:47:46.510Z,99027.78
2023-04-04T10:48:54.708Z,99024.25
2023-04-04T10:49:58.081Z,99028.19
2023-04-04T10:51:02.570Z,99027.06
2023-04-04T10:52:05.150Z,99022.50
2023-04-04T10:53:08.325Z,99025.38
2023-04-04T10:54:11.063Z,99019.66
2023-04-04T10:55:15.027Z,99028.16
2023-04-04T10:56:17.592Z,99027.28
2023-04-04T10:57:20.559Z,99024.38
2023-04-04T10:58:22.683Z,99022.25
2023-04-04T10:59:26.318Z,99032.94
2023-04-04T11:00:29.221Z,99027.19
2023-04-04T11:01:47.579Z,99031.38
2023-04-04T11:02:55.698Z,99019.94
2023-04-04T11:04:19.551Z,99019.03
2023-04-04T11:05:25.968Z,99016.53
2023-04-04T11:07:06.572Z,99019.34
2023-04-04T11:08:14.164Z,99013.78
2023-04-04T11:09:52.995Z,99010.31
2023-04-04T11:10:58.857Z,99020.44
2023-04-04T11:12:11.051Z,99027.88
2023-04-04T11:13:17.224Z,99024.91
2023-04-04T11:14:29.192Z,99027.34
2023-04-04T11:15:47.595Z,99018.56
2023-04-04T11:16:51.775Z,99022.25
2023-04-04T11:18:00.042Z,99025.78
2023-04-04T11:19:03.073Z,99019.03
2023-04-04T11:20:08.234Z,99025.63
2023-04-04T11:21:14.934Z,99021.53
2023-04-04T11:22:18.775Z,99022.53
2023-04-04T11:23:27.589Z,99006.94
2023-04-04T11:24:29.434Z,99008.88
2023-04-04T11:25:37.405Z,99011.88
2023-04-04T11:26:42.761Z,99006.63
2023-04-04T11:27:46.848Z,99001.56
2023-04-04T11:28:50.036Z,98999.72
2023-04-04T11:29:53.471Z,99008.97
2023-04-04T11:31:30.134Z,99008.66
2023-04-04T11:32:50.070Z,99004.06
2023-04-04T11:35:24.200Z,99002.94
2023-04-04T11:36:54.321Z,98995.69
2023-04-04T11:38:03.818Z,99001.00
2023-04-04T11:39:10.045Z,98997.88
2023-04-04T11:40:14.068Z,99004.38
2023-04-04T11:41:17.001Z,99001.63
2023-04-04T11:42:21.230Z,98999.22
2023-04-04T11:43:25.086Z,99002.09
2023-04-04T11:44:32.895Z,99004.25
2023-04-04T11:45:35.869Z,99011.59
2023-04-04T11:46:39.399Z,99005.59
2023-04-04T11:47:47.335Z,99003.81
2023-04-04T11:48:50.292Z,99001.06
2023-04-04T11:49:54.877Z,98999.72
2023-04-04T11:50:58.668Z,99003.69
2023-04-04T11:52:04.438Z,99002.03
2023-04-04T11:53:10.270Z,98992.78
2023-04-04T11:54:16.019Z,99000.38
2023-04-04T11:55:19.600Z,98995.34
2023-04-04T11:56:22.410Z,98998.78
2023-04-04T11:57:24.379Z,98989.25
2023-04-04T11:58:27.607Z,98990.53
2023-04-04T11:59:30.391Z,98995.50
2023-04-04T12:00:38.033Z,99004.69
2023-04-04T12:01:41.474Z,98986.09
2023-04-04T12:02:43.640Z,98995.91
2023-04-04T12:03:46.821Z,98984.63
2023-04-04T12:04:49.137Z,98990.31
2023-04-04T12:05:54.088Z,98989.13
2023-04-04T12:06:56.714Z,98987.94
2023-04-04T12:08:01.816Z,98989.63
2023-04-04T12:09:06.978Z,98990.44
2023-04-04T12:10:10.764Z,98996.75
2023-04-04T12:11:18.670Z,98995.19
2023-04-04T12:12:22.133Z,99001.94
2023-04-04T12:13:31.319Z,98986.16
2023-04-04T12:14:33.531Z,98997.13
2023-04-04T12:15:37.848Z,99002.31
2023-04-04T12:16:44.228Z,98995.78
2023-04-04T12:17:49.084Z,99001.94
2023-04-04T12:18:52.120Z,98997.44
2023-04-04T12:19:55.124Z,99008.63
2023-04-04T12:20:58.027Z,99001.03
2023-04-04T12:22:01.950Z,99006.38
2023-04-04T12:23:05.914Z,99001.78
2023-04-04T12:24:09.909Z,99008.88
2023-04-04T12:25:12.761Z,98999.72
2023-04-04T12:26:16.240Z,99004.19
2023-04-04T12:27:19.549Z,99001.13
2023-04-04T12:28:22.613Z,99004.41
2023-04-04T12:29:26.415Z,99006.38
2023-04-04T12:30:29.628Z,98999.28
2023-04-04T12:31:32.527Z,98998.41
2023-04-04T12:32:37.418Z,98998.88
2023-04-04T12:33:41.303Z,98992.53
2023-04-04T12:34:48.496Z,98994.66
2023-04-04T12:35:54.678Z,98992.56
2023-04-04T12:36:57.920Z,98984.94
2023-04-04T12:38:04.196Z,98998.88
2023-04-04T12:39:12.159Z,99004.66
2023-04-04T12:40:15.208Z,99006.81
2023-04-04T12:41:19.444Z,99013.34
2023-04-04T12:42:22.782Z,99009.41
2023-04-04T12:43:28.713Z,99008.13
2023-04-04T12:44:33.944Z,99016.97